createdAt,value
2017-11-15T00:00:58.390Z,8.42
2017-11-15T00:01:59.099Z,8.52
2017-11-15T00:02:59.805Z,8.51
2017-11-15T00:04:00.510Z,8.48
2017-11-15T00:05:01.217Z,8.46
2017-11-15T00:06:01.923Z,8.45
2017-11-15T00:07:02.628Z,8.48
2017-11-15T00:08:03.335Z,8.51
2017-11-15T00:09:04.042Z,8.45
2017-11-15T00:10:04.748Z,8.45
2017-11-15T00:11:05.453Z,8.49
2017-11-15T00:12:06.161Z,8.42
2017-11-15T00:13:06.872Z,8.46
2017-11-15T00:14:07.573Z,8.44
2017-11-15T00:15:08.281Z,8.45
2017-11-15T00:16:08.987Z,8.45
2017-11-15T00:17:09.694Z,8.45
2017-11-15T00:18:10.413Z,8.42
2017-11-15T00:19:11.129Z,8.45
2017-11-15T00:20:11.835Z,8.46
2017-11-15T00:21:12.541Z,8.49
2017-11-15T00:22:13.263Z,8.45
2017-11-15T00:23:13.970Z,8.44
2017-11-15T00:24:14.679Z,8.45
2017-11-15T00:25:15.398Z,8.48
2017-11-15T00:26:16.105Z,8.46
2017-11-15T00:27:16.813Z,8.49
2017-11-15T00:28:17.520Z,8.46
2017-11-15T00:29:18.238Z,8.51
2017-11-15T00:30:18.945Z,8.48
2017-11-15T00:31:19.651Z,8.45
2017-11-15T00:32:20.359Z,8.48
2017-11-15T00:33:21.079Z,8.42
2017-11-15T00:34:21.795Z,8.44
2017-11-15T00:35:22.502Z,8.52
2017-11-15T00:36:23.208Z,8.49
2017-11-15T00:37:23.916Z,8.51
2017-11-15T00:38:24.620Z,8.48
2017-11-15T00:39:25.328Z,8.45
2017-11-15T00:40:26.035Z,8.44
2017-11-15T00:41:26.742Z,8.42
2017-11-15T00:42:27.459Z,8.49
2017-11-15T00:43:28.167Z,8.48
2017-11-15T00:44:28.872Z,8.44
2017-11-15T00:45:29.579Z,8.49
2017-11-15T00:46:30.292Z,8.45
2017-11-15T00:47:31.008Z,8.42
2017-11-15T00:48:31.728Z,8.52
2017-11-15T00:49:32.433Z,8.46
2017-11-15T00:50:33.156Z,8.48
2017-11-15T00:51:33.861Z,8.51
2017-11-15T00:52:34.576Z,8.48
2017-11-15T00:53:35.282Z,8.48
2017-11-15T00:54:35.989Z,8.52
2017-11-15T00:55:36.715Z,8.46
2017-11-15T00:56:37.418Z,8.49
2017-11-15T00:57:38.125Z,8.49
2017-11-15T00:58:38.833Z,8.52
2017-11-15T00:59:39.553Z,8.49
2017-11-15T01:00:40.259Z,8.60
2017-11-15T01:01:40.989Z,8.55
2017-11-15T01:02:41.687Z,8.45
2017-11-15T01:03:42.390Z,8.45
2017-11-15T01:04:43.111Z,8.51
2017-11-15T01:05:43.830Z,8.48
2017-11-15T01:06:44.536Z,8.46
2017-11-15T01:07:45.247Z,8.52
2017-11-15T01:08:45.948Z,8.45
2017-11-15T01:09:46.655Z,8.51
2017-11-15T01:10:47.373Z,8.52
2017-11-15T01:11:48.080Z,8.48
2017-11-15T01:12:48.787Z,8.53
2017-11-15T01:13:49.493Z,8.52
2017-11-15T01:14:50.215Z,8.49
2017-11-15T01:15:50.929Z,8.51
2017-11-15T01:16:51.631Z,8.56
2017-11-15T01:17:52.339Z,8.46
2017-11-15T01:18:53.056Z,8.51
2017-11-15T01:19:53.763Z,8.52
2017-11-15T01:20:54.468Z,8.51
2017-11-15T01:21:55.174Z,8.46
2017-11-15T01:22:55.885Z,8.49
2017-11-15T01:23:56.589Z,8.44
2017-11-15T01:24:57.294Z,8.44
2017-11-15T01:25:58.005Z,8.55
2017-11-15T01:26:58.705Z,8.48
2017-11-15T01:27:59.424Z,8.52
2017-11-15T01:29:00.131Z,8.46
2017-11-15T01:30:00.839Z,8.49
2017-11-15T01:31:01.549Z,8.44
2017-11-15T01:32:02.252Z,8.46
2017-11-15T01:33:02.972Z,8.49
2017-11-15T01:34:03.695Z,8.49
2017-11-15T01:35:04.398Z,8.44
2017-11-15T01:36:05.109Z,8.48
2017-11-15T01:37:05.825Z,8.51
2017-11-15T01:38:06.544Z,8.48
2017-11-15T01:39:07.251Z,8.45
2017-11-15T01:40:07.968Z,8.53
2017-11-15T01:41:08.678Z,8.52
2017-11-15T01:42:09.386Z,8.48
2017-11-15T01:43:10.093Z,8.44
2017-11-15T01:44:10.799Z,8.45
2017-11-15T01:45:11.510Z,8.46
2017-11-15T01:46:12.228Z,8.51
2017-11-15T01:47:12.944Z,8.45
2017-11-15T01:48:13.652Z,8.41
2017-11-15T01:49:14.358Z,8.51
2017-11-15T01:50:15.065Z,8.46
2017-11-15T01:51:15.771Z,8.46
2017-11-15T01:52:16.478Z,8.49
2017-11-15T01:53:17.198Z,8.48
2017-11-15T01:54:17.919Z,8.51
2017-11-15T01:55:18.625Z,8.45
2017-11-15T01:56:19.352Z,8.48
2017-11-15T01:57:20.042Z,8.46
2017-11-15T01:58:20.760Z,8.48
2017-11-15T01:59:21.466Z,8.55
2017-11-15T02:00:22.174Z,8.53
2017-11-15T02:01:22.879Z,8.49
2017-11-15T02:02:23.586Z,8.49
2017-11-15T02:03:24.305Z,8.49
2017-11-15T02:04:25.013Z,8.52
2017-11-15T02:05:25.719Z,8.48
2017-11-15T02:06:26.439Z,8.52
2017-11-15T02:07:27.147Z,8.51
2017-11-15T02:08:27.855Z,8.53
2017-11-15T02:09:28.575Z,8.51
2017-11-15T02:10:29.294Z,8.48
2017-11-15T02:11:30.004Z,8.61
2017-11-15T02:12:30.721Z,8.56
2017-11-15T02:13:31.428Z,8.52
2017-11-15T02:14:32.134Z,8.48
2017-11-15T02:15:32.845Z,8.45
2017-11-15T02:16:33.577Z,8.46
2017-11-15T02:17:34.265Z,8.44
2017-11-15T02:18:34.973Z,8.52
2017-11-15T02:19:35.693Z,8.51
2017-11-15T02:20:36.401Z,8.44
2017-11-15T02:21:37.108Z,8.49
2017-11-15T02:22:37.817Z,8.48
2017-11-15T02:23:38.524Z,8.55
2017-11-15T02:24:39.231Z,8.51
2017-11-15T02:25:39.939Z,8.52
2017-11-15T02:26:40.646Z,8.48
2017-11-15T02:27:41.353Z,8.55
2017-11-15T02:28:42.061Z,8.45
2017-11-15T02:29:42.767Z,8.45
2017-11-15T02:30:43.492Z,8.51
2017-11-15T02:31:44.191Z,8.52
2017-11-15T02:32:44.900Z,8.52
2017-11-15T02:33:45.608Z,8.44
2017-11-15T02:34:46.313Z,8.51
2017-11-15T02:35:47.022Z,8.53
2017-11-15T02:36:47.729Z,8.44
2017-11-15T02:37:48.439Z,8.52
2017-11-15T02:38:49.143Z,8.58
2017-11-15T02:39:49.851Z,8.56
2017-11-15T02:40:50.558Z,8.58
2017-11-15T02:41:51.276Z,8.52
2017-11-15T02:42:51.986Z,8.53
2017-11-15T02:43:52.696Z,8.45
2017-11-15T02:44:53.404Z,8.46
2017-11-15T02:45:54.113Z,8.48
2017-11-15T02:46:54.821Z,8.52
2017-11-15T02:47:55.527Z,8.58
2017-11-15T02:48:56.251Z,8.60
2017-11-15T02:49:56.970Z,8.58
2017-11-15T02:50:57.692Z,8.56
2017-11-15T02:51:58.399Z,8.51
2017-11-15T02:52:59.105Z,8.53
2017-11-15T02:53:59.812Z,8.53
2017-11-15T02:55:00.518Z,8.51
2017-11-15T02:56:01.227Z,8.60
2017-11-15T02:57:01.944Z,8.52
2017-11-15T02:58:02.665Z,8.49
2017-11-15T02:59:03.373Z,8.61
2017-11-15T03:00:04.079Z,8.52
2017-11-15T03:01:04.807Z,8.49
2017-11-15T03:02:05.506Z,8.49
2017-11-15T03:03:06.215Z,8.48
2017-11-15T03:04:06.923Z,8.51
2017-11-15T03:05:07.630Z,8.51
2017-11-15T03:06:08.336Z,8.52
2017-11-15T03:07:09.050Z,8.51
2017-11-15T03:08:09.752Z,8.55
2017-11-15T03:09:10.460Z,8.45
2017-11-15T03:10:11.180Z,8.48
2017-11-15T03:11:11.887Z,8.52
2017-11-15T03:12:12.601Z,8.49
2017-11-15T03:13:13.318Z,8.56
2017-11-15T03:14:14.027Z,8.52
2017-11-15T03:15:14.743Z,8.46
2017-11-15T03:16:15.444Z,8.48
2017-11-15T03:17:16.150Z,8.53
2017-11-15T03:18:16.857Z,8.56
2017-11-15T03:19:17.566Z,8.56
2017-11-15T03:20:18.273Z,8.56
2017-11-15T03:21:18.993Z,8.45
2017-11-15T03:22:19.702Z,8.52
2017-11-15T03:23:20.410Z,8.51
2017-11-15T03:24:21.117Z,8.52
2017-11-15T03:25:21.842Z,8.46
2017-11-15T03:26:22.528Z,8.46
2017-11-15T03:27:23.244Z,8.51
2017-11-15T03:28:23.944Z,8.48
2017-11-15T03:29:24.651Z,8.51
2017-11-15T03:30:25.360Z,8.51
2017-11-15T03:31:26.064Z,8.52
2017-11-15T03:32:26.772Z,8.45
2017-11-15T03:33:27.479Z,8.48
2017-11-15T03:34:28.202Z,8.53
2017-11-15T03:35:28.908Z,8.48
2017-11-15T03:36:29.628Z,8.46
2017-11-15T03:37:30.334Z,8.46
2017-11-15T03:38:31.040Z,8.44
2017-11-15T03:39:31.748Z,8.41
2017-11-15T03:40:32.455Z,8.37
2017-11-15T03:41:33.163Z,8.46
2017-11-15T03:42:33.868Z,8.42
2017-11-15T03:43:34.591Z,8.44
2017-11-15T03:44:35.293Z,8.46
2017-11-15T03:45:35.999Z,8.51
2017-11-15T03:46:36.709Z,8.46
2017-11-15T03:47:37.416Z,8.51
2017-11-15T03:48:38.121Z,8.45
2017-11-15T03:49:38.841Z,8.36
2017-11-15T03:50:39.548Z,8.45
2017-11-15T03:51:40.256Z,8.46
2017-11-15T03:52:40.964Z,8.44
2017-11-15T03:53:41.683Z,8.44
2017-11-15T03:54:42.379Z,8.42
2017-11-15T03:55:43.098Z,8.34
2017-11-15T03:56:43.805Z,8.42
2017-11-15T03:57:44.524Z,8.51
2017-11-15T03:58:45.229Z,8.30
2017-11-15T03:59:45.937Z,8.36
2017-11-15T04:00:46.666Z,8.34
2017-11-15T04:01:47.354Z,8.37
2017-11-15T04:02:48.060Z,8.38
2017-11-15T04:03:48.781Z,8.33
2017-11-15T04:04:49.490Z,8.38
2017-11-15T04:05:50.206Z,8.42
2017-11-15T04:06:50.924Z,8.27
2017-11-15T04:07:51.630Z,8.34
2017-11-15T04:08:52.335Z,8.38
2017-11-15T04:09:53.042Z,8.33
2017-11-15T04:10:53.749Z,8.36
2017-11-15T04:11:54.456Z,8.26
2017-11-15T04:12:55.164Z,8.34
2017-11-15T04:13:55.887Z,8.31
2017-11-15T04:14:56.593Z,8.33
2017-11-15T04:15:57.311Z,8.34
2017-11-15T04:16:58.008Z,8.33
2017-11-15T04:17:58.717Z,8.44
2017-11-15T04:18:59.438Z,8.28
2017-11-15T04:20:00.146Z,8.30
2017-11-15T04:21:00.851Z,8.31
2017-11-15T04:22:01.560Z,8.34
2017-11-15T04:23:02.277Z,8.31
2017-11-15T04:24:02.986Z,8.41
2017-11-15T04:25:03.707Z,8.34
2017-11-15T04:26:04.412Z,8.37
2017-11-15T04:27:05.119Z,8.33
2017-11-15T04:28:05.841Z,8.36
2017-11-15T04:29:06.552Z,8.30
2017-11-15T04:30:07.254Z,8.28
2017-11-15T04:31:07.964Z,8.28
2017-11-15T04:32:08.671Z,8.37
2017-11-15T04:33:09.378Z,8.33
2017-11-15T04:34:10.085Z,8.33
2017-11-15T04:35:10.791Z,8.34
2017-11-15T04:36:11.498Z,8.36
2017-11-15T04:37:12.206Z,8.36
2017-11-15T04:38:12.930Z,8.38
2017-11-15T04:39:13.639Z,8.30
2017-11-15T04:40:14.347Z,8.36
2017-11-15T04:41:15.054Z,8.30
2017-11-15T04:42:15.762Z,8.34
2017-11-15T04:43:16.474Z,8.34
2017-11-15T04:44:17.189Z,8.33
2017-11-15T04:45:17.896Z,8.37
2017-11-15T04:46:18.604Z,8.34
2017-11-15T04:47:19.313Z,8.34
2017-11-15T04:48:20.032Z,8.31
2017-11-15T04:49:20.746Z,8.24
2017-11-15T04:50:21.462Z,8.34
2017-11-15T04:51:22.168Z,8.33
2017-11-15T04:52:22.874Z,8.27
2017-11-15T04:53:23.583Z,8.28
2017-11-15T04:54:24.290Z,8.20
2017-11-15T04:55:24.999Z,8.30
2017-11-15T04:56:25.704Z,8.26
2017-11-15T04:57:26.412Z,8.23
2017-11-15T04:58:27.131Z,8.27
2017-11-15T04:59:27.838Z,8.27
2017-11-15T05:00:28.544Z,8.31
2017-11-15T05:01:29.250Z,8.24
2017-11-15T05:02:29.969Z,8.27
2017-11-15T05:03:30.677Z,8.24
2017-11-15T05:04:31.385Z,8.28
2017-11-15T05:05:32.095Z,8.26
2017-11-15T05:06:32.803Z,8.23
2017-11-15T05:07:33.522Z,8.18
2017-11-15T05:08:34.235Z,8.20
2017-11-15T05:09:34.934Z,8.26
2017-11-15T05:10:35.642Z,8.27
2017-11-15T05:11:36.353Z,8.24
2017-11-15T05:12:37.060Z,8.23
2017-11-15T05:13:37.768Z,8.20
2017-11-15T05:14:38.475Z,8.28
2017-11-15T05:15:39.180Z,8.23
2017-11-15T05:16:39.891Z,8.26
2017-11-15T05:17:40.596Z,8.30
2017-11-15T05:18:41.306Z,8.23
2017-11-15T05:19:42.013Z,8.23
2017-11-15T05:20:42.720Z,8.27
2017-11-15T05:21:43.434Z,8.33
2017-11-15T05:22:44.149Z,8.26
2017-11-15T05:23:44.858Z,8.24
2017-11-15T05:24:45.565Z,8.28
2017-11-15T05:25:46.275Z,8.24
2017-11-15T05:26:46.981Z,8.26
2017-11-15T05:27:47.687Z,8.28
2017-11-15T05:28:48.393Z,8.26
2017-11-15T05:29:49.101Z,8.28
2017-11-15T05:30:49.806Z,8.27
2017-11-15T05:31:50.523Z,8.28
2017-11-15T05:32:51.243Z,8.23
2017-11-15T05:33:51.950Z,8.26
2017-11-15T05:34:52.669Z,8.23
2017-11-15T05:35:53.389Z,8.31
2017-11-15T05:36:54.108Z,8.30
2017-11-15T05:37:54.815Z,8.24
2017-11-15T05:38:55.538Z,8.26
2017-11-15T05:39:56.246Z,8.23
2017-11-15T05:40:56.955Z,8.38
2017-11-15T05:41:57.663Z,8.27
2017-11-15T05:42:58.370Z,8.27
2017-11-15T05:43:59.078Z,8.33
2017-11-15T05:44:59.786Z,8.26
2017-11-15T05:46:00.493Z,8.30
2017-11-15T05:47:01.210Z,8.33
2017-11-15T05:48:01.930Z,8.20
2017-11-15T05:49:02.650Z,8.24
2017-11-15T05:50:03.357Z,8.30
2017-11-15T05:51:04.065Z,8.24
2017-11-15T05:52:04.770Z,8.31
2017-11-15T05:53:05.489Z,8.30
2017-11-15T05:54:06.197Z,8.34
2017-11-15T05:55:06.904Z,8.31
2017-11-15T05:56:07.611Z,8.24
2017-11-15T05:57:08.318Z,8.37
2017-11-15T05:58:09.026Z,8.36
2017-11-15T05:59:09.734Z,8.34
2017-11-15T06:00:10.454Z,8.31
2017-11-15T06:01:11.162Z,8.36
2017-11-15T06:02:11.883Z,8.31
2017-11-15T06:03:12.601Z,8.27
2017-11-15T06:04:13.309Z,8.38
2017-11-15T06:05:14.017Z,8.33
2017-11-15T06:06:14.726Z,8.36
2017-11-15T06:07:15.442Z,8.36
2017-11-15T06:08:16.163Z,8.36
2017-11-15T06:09:16.875Z,8.41
2017-11-15T06:10:17.585Z,8.36
2017-11-15T06:11:18.388Z,8.33
2017-11-15T06:12:19.022Z,8.34
2017-11-15T06:13:19.829Z,8.46
2017-11-15T06:14:20.413Z,8.36
2017-11-15T06:15:21.124Z,8.41
2017-11-15T06:16:21.859Z,8.34
2017-11-15T06:17:22.628Z,8.38
2017-11-15T06:18:23.237Z,8.33
2017-11-15T06:19:23.992Z,8.36
2017-11-15T06:20:24.712Z,8.33
2017-11-15T06:21:25.428Z,8.36
2017-11-15T06:22:26.156Z,8.31
2017-11-15T06:23:26.850Z,8.34
2017-11-15T06:24:27.529Z,8.33
2017-11-15T06:25:28.223Z,8.34
2017-11-15T06:26:28.938Z,8.37
2017-11-15T06:27:29.733Z,8.34
2017-11-15T06:28:30.420Z,8.42
2017-11-15T06:29:31.153Z,8.37
2017-11-15T06:30:31.863Z,8.37
2017-11-15T06:31:32.590Z,8.41
2017-11-15T06:32:33.354Z,8.33
2017-11-15T06:33:33.929Z,8.38
2017-11-15T06:34:34.677Z,8.34
2017-11-15T06:35:35.367Z,8.33
2017-11-15T06:36:36.092Z,8.34
2017-11-15T06:37:36.842Z,8.31
2017-11-15T06:38:37.425Z,8.33
2017-11-15T06:39:38.135Z,8.33
2017-11-15T06:40:38.843Z,8.36
2017-11-15T06:41:39.563Z,8.38
2017-11-15T06:42:40.257Z,8.38
2017-11-15T06:43:40.968Z,8.37
2017-11-15T06:44:41.676Z,8.28
2017-11-15T06:45:42.382Z,8.34
2017-11-15T06:46:43.090Z,8.36
2017-11-15T06:47:43.800Z,8.38
2017-11-15T06:48:44.521Z,8.31
2017-11-15T06:49:45.242Z,8.37
2017-11-15T06:50:45.950Z,8.36
2017-11-15T06:51:46.656Z,8.38
2017-11-15T06:52:47.365Z,8.30
2017-11-15T06:53:48.095Z,8.36
2017-11-15T06:54:48.807Z,8.30
2017-11-15T06:55:49.517Z,8.34
2017-11-15T06:56:50.227Z,8.38
2017-11-15T06:57:50.946Z,8.36
2017-11-15T06:58:51.655Z,8.33
2017-11-15T06:59:52.365Z,8.34
2017-11-15T07:00:53.076Z,8.34
2017-11-15T07:01:53.789Z,8.31
2017-11-15T07:02:54.508Z,8.38
2017-11-15T07:03:55.218Z,8.37
2017-11-15T07:04:55.928Z,8.34
2017-11-15T07:05:56.637Z,8.36
2017-11-15T07:06:57.349Z,8.37
2017-11-15T07:07:58.062Z,8.37
2017-11-15T07:08:58.772Z,8.34
2017-11-15T07:09:59.484Z,8.36
2017-11-15T07:11:00.208Z,8.34
2017-11-15T07:12:00.918Z,8.36
2017-11-15T07:13:01.628Z,8.46
2017-11-15T07:14:02.337Z,8.33
2017-11-15T07:15:03.046Z,8.36
2017-11-15T07:16:03.755Z,8.33
2017-11-15T07:17:04.469Z,8.44
2017-11-15T07:18:05.192Z,8.36
2017-11-15T07:19:05.903Z,8.45
2017-11-15T07:20:06.626Z,8.41
2017-11-15T07:21:07.343Z,8.45
2017-11-15T07:22:08.050Z,8.36
2017-11-15T07:23:08.773Z,8.49
2017-11-15T07:24:09.481Z,8.46
2017-11-15T07:25:10.191Z,8.46
2017-11-15T07:26:10.916Z,8.48
2017-11-15T07:27:11.629Z,8.46
2017-11-15T07:28:12.337Z,8.48
2017-11-15T07:29:13.053Z,8.45
2017-11-15T07:30:13.794Z,8.44
2017-11-15T07:31:14.484Z,8.53
2017-11-15T07:32:15.195Z,8.49
2017-11-15T07:33:15.906Z,8.55
2017-11-15T07:34:16.615Z,8.55
2017-11-15T07:35:17.338Z,8.52
2017-11-15T07:36:18.050Z,8.52
2017-11-15T07:37:18.773Z,8.48
2017-11-15T07:38:19.484Z,8.53
2017-11-15T07:39:20.193Z,8.48
2017-11-15T07:40:20.904Z,8.51
2017-11-15T07:41:21.625Z,8.56
2017-11-15T07:42:22.350Z,8.51
2017-11-15T07:43:23.071Z,8.58
2017-11-15T07:44:23.781Z,8.56
2017-11-15T07:45:24.493Z,8.53
2017-11-15T07:46:25.202Z,8.56
2017-11-15T07:47:25.916Z,8.60
2017-11-15T07:48:26.626Z,8.58
2017-11-15T07:49:27.339Z,8.55
2017-11-15T07:50:28.056Z,8.56
2017-11-15T07:51:28.770Z,8.56
2017-11-15T07:52:29.482Z,8.56
2017-11-15T07:53:30.194Z,8.66
2017-11-15T07:54:30.907Z,8.74
2017-11-15T07:55:31.619Z,8.70
2017-11-15T07:56:32.332Z,8.64
2017-11-15T07:57:33.042Z,8.66
2017-11-15T07:58:33.759Z,8.69
2017-11-15T07:59:34.472Z,8.64
2017-11-15T08:00:35.191Z,8.61
2017-11-15T08:01:35.910Z,8.66
2017-11-15T08:02:36.618Z,8.73
2017-11-15T08:03:37.340Z,8.64
2017-11-15T08:04:38.074Z,8.67
2017-11-15T08:05:38.779Z,8.69
2017-11-15T08:06:39.492Z,8.71
2017-11-15T08:07:40.205Z,8.67
2017-11-15T08:08:40.916Z,8.63
2017-11-15T08:09:41.639Z,8.63
2017-11-15T08:10:42.351Z,8.69
2017-11-15T08:11:43.062Z,8.64
2017-11-15T08:12:43.776Z,8.69
2017-11-15T08:13:44.482Z,8.63
2017-11-15T08:14:45.195Z,8.66
2017-11-15T08:15:45.905Z,8.64
2017-11-15T08:16:46.617Z,8.70
2017-11-15T08:17:47.329Z,8.70
2017-11-15T08:18:48.043Z,8.69
2017-11-15T08:19:48.754Z,8.67
2017-11-15T08:20:49.467Z,8.73
2017-11-15T08:21:50.180Z,8.73
2017-11-15T08:22:50.890Z,8.69
2017-11-15T08:23:51.605Z,8.69
2017-11-15T08:24:52.326Z,8.71
2017-11-15T08:25:53.041Z,8.66
2017-11-15T08:26:53.750Z,8.69
2017-11-15T08:27:54.464Z,8.69
2017-11-15T08:28:55.176Z,8.81
2017-11-15T08:29:55.900Z,8.73
2017-11-15T08:30:56.612Z,8.73
2017-11-15T08:31:57.323Z,8.76
2017-11-15T08:32:58.036Z,8.74
2017-11-15T08:33:58.760Z,8.74
2017-11-15T08:34:59.472Z,8.73
2017-11-15T08:36:00.186Z,8.70
2017-11-15T08:37:00.913Z,8.67
2017-11-15T08:38:01.625Z,8.73
2017-11-15T08:39:02.350Z,8.69
2017-11-15T08:40:03.059Z,8.76
2017-11-15T08:41:03.788Z,8.79
2017-11-15T08:42:04.486Z,8.81
2017-11-15T08:43:05.210Z,8.73
2017-11-15T08:44:05.921Z,8.81
2017-11-15T08:45:06.646Z,8.73
2017-11-15T08:46:07.359Z,8.85
2017-11-15T08:47:08.084Z,8.81
2017-11-15T08:48:08.796Z,8.84
2017-11-15T08:49:09.507Z,8.82
2017-11-15T08:50:10.220Z,8.91
2017-11-15T08:51:10.933Z,8.91
2017-11-15T08:52:11.660Z,8.91
2017-11-15T08:53:12.359Z,8.89
2017-11-15T08:54:13.070Z,8.91
2017-11-15T08:55:13.782Z,8.88
2017-11-15T08:56:14.492Z,9.03
2017-11-15T08:57:15.204Z,9.02
2017-11-15T08:58:15.931Z,8.99
2017-11-15T08:59:16.643Z,8.95
2017-11-15T09:00:17.367Z,9.02
2017-11-15T09:01:18.080Z,8.92
2017-11-15T09:02:18.793Z,8.97
2017-11-15T09:03:19.507Z,8.97
2017-11-15T09:04:20.220Z,8.99
2017-11-15T09:05:20.931Z,9.04
2017-11-15T09:06:21.644Z,9.03
2017-11-15T09:07:22.357Z,9.16
2017-11-15T09:08:23.070Z,9.10
2017-11-15T09:09:23.781Z,9.10
2017-11-15T09:10:24.493Z,9.14
2017-11-15T09:11:25.219Z,9.13
2017-11-15T09:12:25.931Z,9.14
2017-11-15T09:13:26.642Z,9.16
2017-11-15T09:14:27.358Z,9.11
2017-11-15T09:15:28.083Z,9.13
2017-11-15T09:16:28.797Z,9.13
2017-11-15T09:17:29.508Z,9.08
2017-11-15T09:18:30.220Z,9.13
2017-11-15T09:19:30.933Z,9.16
2017-11-15T09:20:31.664Z,9.18
2017-11-15T09:21:32.386Z,9.13
2017-11-15T09:22:33.109Z,9.14
2017-11-15T09:23:33.820Z,9.16
2017-11-15T09:24:34.533Z,9.14
2017-11-15T09:25:35.245Z,9.22
2017-11-15T09:26:35.968Z,9.21
2017-11-15T09:27:36.693Z,9.25
2017-11-15T09:28:37.405Z,9.32
2017-11-15T09:29:38.129Z,9.28
2017-11-15T09:30:38.851Z,9.29
2017-11-15T09:31:39.563Z,9.28
2017-11-15T09:32:40.288Z,9.25
2017-11-15T09:33:41.000Z,9.31
2017-11-15T09:34:41.711Z,9.31
2017-11-15T09:35:42.426Z,9.28
2017-11-15T09:36:43.138Z,9.25
2017-11-15T09:37:43.863Z,9.23
2017-11-15T09:38:44.578Z,9.26
2017-11-15T09:39:45.292Z,9.28
2017-11-15T09:40:46.001Z,9.31
2017-11-15T09:41:46.714Z,9.28
2017-11-15T09:42:47.427Z,9.32
2017-11-15T09:43:48.138Z,9.39
2017-11-15T09:44:48.850Z,9.31
2017-11-15T09:45:49.566Z,9.34
2017-11-15T09:46:50.281Z,9.39
2017-11-15T09:47:50.996Z,9.46
2017-11-15T09:48:51.717Z,9.41
2017-11-15T09:49:52.429Z,9.40
2017-11-15T09:50:53.141Z,9.39
2017-11-15T09:51:53.866Z,9.41
2017-11-15T09:52:54.579Z,9.40
2017-11-15T09:53:55.292Z,9.44
2017-11-15T09:54:56.011Z,9.59
2017-11-15T09:55:56.717Z,9.56
2017-11-15T09:56:57.430Z,9.54
2017-11-15T09:57:58.144Z,9.59
2017-11-15T09:58:58.859Z,9.55
2017-11-15T09:59:59.571Z,9.65
2017-11-15T10:01:00.285Z,9.65
2017-11-15T10:02:01.000Z,9.65
2017-11-15T10:03:01.712Z,9.62
2017-11-15T10:04:02.441Z,9.66
2017-11-15T10:05:03.157Z,9.72
2017-11-15T10:06:03.867Z,9.62
2017-11-15T10:07:04.578Z,9.61
2017-11-15T10:08:05.289Z,9.51
2017-11-15T10:09:06.005Z,9.55
2017-11-15T10:10:06.718Z,9.55
2017-11-15T10:11:07.432Z,9.58
2017-11-15T10:12:08.159Z,9.61
2017-11-15T10:13:08.885Z,9.55
2017-11-15T10:14:09.598Z,9.51
2017-11-15T10:15:10.315Z,9.56
2017-11-15T10:16:11.033Z,9.64
2017-11-15T10:17:11.743Z,9.68
2017-11-15T10:18:12.456Z,9.65
2017-11-15T10:19:13.176Z,9.69
2017-11-15T10:20:13.884Z,9.66
2017-11-15T10:21:14.600Z,9.76
2017-11-15T10:22:15.316Z,9.74
2017-11-15T10:23:16.030Z,9.69
2017-11-15T10:24:16.755Z,9.76
2017-11-15T10:25:17.467Z,9.73
2017-11-15T10:26:18.181Z,9.84
2017-11-15T10:27:18.897Z,9.80
2017-11-15T10:28:19.625Z,9.87
2017-11-15T10:29:20.349Z,9.83
2017-11-15T10:30:21.067Z,9.87
2017-11-15T10:31:21.792Z,9.92
2017-11-15T10:32:22.520Z,9.84
2017-11-15T10:33:23.236Z,9.89
2017-11-15T10:34:23.949Z,9.82
2017-11-15T10:35:24.676Z,9.83
2017-11-15T10:36:25.389Z,9.84
2017-11-15T10:37:26.101Z,9.84
2017-11-15T10:38:26.818Z,9.98
2017-11-15T10:39:27.533Z,9.95
2017-11-15T10:40:28.248Z,10.01
2017-11-15T10:41:28.964Z,9.99
2017-11-15T10:42:29.690Z,10.02
2017-11-15T10:43:30.408Z,10.12
2017-11-15T10:44:31.123Z,10.02
2017-11-15T10:45:31.851Z,10.04
2017-11-15T10:46:32.567Z,10.02
2017-11-15T10:47:33.285Z,10.04
2017-11-15T10:48:33.999Z,10.10
2017-11-15T10:49:34.722Z,10.02
2017-11-15T10:50:35.442Z,10.04
2017-11-15T10:51:36.158Z,10.02
2017-11-15T10:52:36.874Z,10.13
2017-11-15T10:53:37.590Z,10.13
2017-11-15T10:54:38.304Z,10.16
2017-11-15T10:55:39.020Z,9.99
2017-11-15T10:56:39.754Z,10.04
2017-11-15T10:57:40.476Z,10.12
2017-11-15T10:58:41.192Z,10.16
2017-11-15T10:59:41.907Z,10.23
2017-11-15T11:00:42.623Z,10.33
2017-11-15T11:01:43.340Z,10.19
2017-11-15T11:02:44.058Z,10.17
2017-11-15T11:03:44.791Z,10.25
2017-11-15T11:04:45.513Z,10.37
2017-11-15T11:05:46.228Z,10.35
2017-11-15T11:06:46.944Z,10.37
2017-11-15T11:07:47.661Z,10.46
2017-11-15T11:08:48.379Z,10.44
2017-11-15T11:09:49.098Z,10.56
2017-11-15T11:10:49.828Z,10.63
2017-11-15T11:11:50.524Z,10.54
2017-11-15T11:12:51.240Z,10.64
2017-11-15T11:13:51.956Z,10.41
2017-11-15T11:14:52.671Z,10.54
2017-11-15T11:15:53.400Z,10.42
2017-11-15T11:16:54.116Z,10.49
2017-11-15T11:17:54.831Z,10.40
2017-11-15T11:18:55.547Z,10.42
2017-11-15T11:19:56.274Z,10.42
2017-11-15T11:20:56.990Z,10.40
2017-11-15T11:21:57.707Z,10.35
2017-11-15T11:22:58.421Z,10.38
2017-11-15T11:23:59.140Z,10.26
2017-11-15T11:24:59.856Z,10.20
2017-11-15T11:26:00.573Z,10.19
2017-11-15T11:27:01.300Z,10.26
2017-11-15T11:28:02.015Z,10.20
2017-11-15T11:29:02.734Z,10.23
2017-11-15T11:30:03.466Z,10.23
2017-11-15T11:31:04.190Z,10.34
2017-11-15T11:32:04.907Z,10.26
2017-11-15T11:33:05.622Z,10.37
2017-11-15T11:34:06.338Z,10.41
2017-11-15T11:35:07.055Z,10.37
2017-11-15T11:36:07.771Z,10.35
2017-11-15T11:37:08.487Z,10.44
2017-11-15T11:38:09.204Z,10.48
2017-11-15T11:39:09.919Z,10.40
2017-11-15T11:40:10.635Z,10.42
2017-11-15T11:41:11.365Z,10.42
2017-11-15T11:42:12.083Z,10.41
2017-11-15T11:43:12.796Z,10.46
2017-11-15T11:44:13.513Z,10.42
2017-11-15T11:45:14.230Z,10.41
2017-11-15T11:46:14.944Z,10.46
2017-11-15T11:47:15.659Z,10.68
2017-11-15T11:48:16.375Z,10.54
2017-11-15T11:49:17.090Z,10.57
2017-11-15T11:50:17.816Z,10.59
2017-11-15T11:51:18.532Z,10.72
2017-11-15T11:52:19.249Z,10.72
2017-11-15T11:53:19.964Z,10.71
2017-11-15T11:54:20.693Z,10.64
2017-11-15T11:55:21.405Z,10.68
2017-11-15T11:56:22.121Z,10.72
2017-11-15T11:57:22.838Z,10.60
2017-11-15T11:58:23.554Z,10.74
2017-11-15T11:59:24.282Z,10.71
2017-11-15T12:00:25.010Z,10.64
2017-11-15T12:01:25.737Z,10.68
2017-11-15T12:02:26.451Z,10.60
2017-11-15T12:03:27.166Z,10.68
2017-11-15T12:04:27.884Z,10.69
2017-11-15T12:05:28.612Z,10.68
2017-11-15T12:06:29.329Z,10.68
2017-11-15T12:07:30.042Z,10.68
2017-11-15T12:08:30.759Z,10.60
2017-11-15T12:09:31.484Z,10.72
2017-11-15T12:10:32.200Z,10.68
2017-11-15T12:11:32.914Z,10.68
2017-11-15T12:12:33.643Z,10.68
2017-11-15T12:13:34.356Z,10.68
2017-11-15T12:14:35.070Z,10.68
2017-11-15T12:15:35.784Z,10.68
2017-11-15T12:16:36.499Z,10.64
2017-11-15T12:17:37.215Z,10.67
2017-11-15T12:18:37.931Z,10.61
2017-11-15T12:19:38.647Z,10.69
2017-11-15T12:20:39.373Z,10.56
2017-11-15T12:21:40.087Z,10.61
2017-11-15T12:22:40.802Z,10.53
2017-11-15T12:23:41.519Z,10.56
2017-11-15T12:24:42.243Z,10.56
2017-11-15T12:25:42.961Z,10.63
2017-11-15T12:26:43.675Z,10.56
2017-11-15T12:27:44.392Z,10.60
2017-11-15T12:28:45.119Z,10.69
2017-11-15T12:29:45.838Z,10.61
2017-11-15T12:30:46.553Z,10.61
2017-11-15T12:31:47.267Z,10.60
2017-11-15T12:32:47.988Z,10.64
2017-11-15T12:33:48.718Z,10.69
2017-11-15T12:34:49.433Z,10.76
2017-11-15T12:35:50.157Z,10.69
2017-11-15T12:36:50.882Z,10.69
2017-11-15T12:37:51.597Z,10.68
2017-11-15T12:38:52.313Z,10.71
2017-11-15T12:39:53.029Z,10.60
2017-11-15T12:40:53.747Z,10.68
2017-11-15T12:41:54.463Z,10.63
2017-11-15T12:42:55.170Z,10.68
2017-11-15T12:43:55.885Z,10.61
2017-11-15T12:44:56.600Z,10.68
2017-11-15T12:45:57.314Z,10.71
2017-11-15T12:46:58.030Z,10.72
2017-11-15T12:47:58.744Z,10.69
2017-11-15T12:48:59.457Z,10.68
2017-11-15T12:50:00.175Z,10.60
2017-11-15T12:51:00.886Z,10.71
2017-11-15T12:52:01.602Z,10.67
2017-11-15T12:53:02.337Z,10.59
2017-11-15T12:54:03.041Z,10.59
2017-11-15T12:55:03.757Z,10.60
2017-11-15T12:56:04.485Z,10.59
2017-11-15T12:57:05.201Z,10.54
2017-11-15T12:58:05.926Z,10.46
2017-11-15T12:59:06.641Z,10.53
2017-11-15T13:00:07.354Z,10.40
2017-11-15T13:01:08.071Z,10.48
2017-11-15T13:02:08.796Z,10.48
2017-11-15T13:03:09.510Z,10.51
2017-11-15T13:04:10.222Z,10.48
2017-11-15T13:05:10.937Z,10.48
2017-11-15T13:06:11.651Z,10.46
2017-11-15T13:07:12.366Z,10.48
2017-11-15T13:08:13.079Z,10.46
2017-11-15T13:09:13.793Z,10.42
2017-11-15T13:10:14.508Z,10.46
2017-11-15T13:11:15.222Z,10.42
2017-11-15T13:12:15.937Z,10.44
2017-11-15T13:13:16.650Z,10.44
2017-11-15T13:14:17.376Z,10.49
2017-11-15T13:15:18.092Z,10.44
2017-11-15T13:16:18.806Z,10.40
2017-11-15T13:17:19.520Z,10.41
2017-11-15T13:18:20.235Z,10.44
2017-11-15T13:19:20.951Z,10.42
2017-11-15T13:20:21.663Z,10.42
2017-11-15T13:21:22.388Z,10.44
2017-11-15T13:22:23.102Z,10.44
2017-11-15T13:23:23.815Z,10.38